sensor_id;sensor_type;location;lat;lon;timestamp;pressure;altitude;pressure_sealevel;temperature;humidity
73415;BME280;61633;53.742;-2.990;2022-08-21T00:00:49;101337.16;;;15.54;57.69
73415;BME280;61633;53.742;-2.990;2022-08-21T00:03:16;101334.53;;;15.76;56.30
73415;BME280;61633;53.742;-2.990;2022-08-21T00:05:43;101334.59;;;15.74;54.58
73415;BME280;61633;53.742;-2.990;2022-08-21T00:08:07;101334.77;;;15.83;55.49
73415;BME280;61633;53.742;-2.990;2022-08-21T00:10:32;101331.84;;;15.97;54.49
73415;BME280;61633;53.742;-2.990;2022-08-21T00:12:58;101324.90;;;16.01;54.28
73415;BME280;61633;53.742;-2.990;2022-08-21T00:15:26;101323.97;;;16.61;54.30
73415;BME280;61633;53.742;-2.990;2022-08-21T00:17:49;101327.56;;;16.54;53.35
73415;BME280;61633;53.742;-2.990;2022-08-21T00:20:16;101327.83;;;16.15;54.76
73415;BME280;61633;53.742;-2.990;2022-08-21T00:22:41;101322.71;;;15.95;54.73
73415;BME280;61633;53.742;-2.990;2022-08-21T00:25:07;101313.46;;;16.62;52.28
73415;BME280;61633;53.742;-2.990;2022-08-21T00:27:31;101315.95;;;16.17;55.14
73415;BME280;61633;53.742;-2.990;2022-08-21T00:29:56;101312.92;;;16.47;55.04
73415;BME280;61633;53.742;-2.990;2022-08-21T00:32:24;101307.15;;;16.83;55.09
73415;BME280;61633;53.742;-2.990;2022-08-21T00:34:47;101301.87;;;16.13;54.82
73415;BME280;61633;53.742;-2.990;2022-08-21T00:37:12;101308.25;;;15.13;57.02
73415;BME280;61633;53.742;-2.990;2022-08-21T00:39:38;101303.30;;;15.92;55.42
73415;BME280;61633;53.742;-2.990;2022-08-21T00:42:03;101304.67;;;16.16;56.71
73415;BME280;61633;53.742;-2.990;2022-08-21T00:44:29;101305.78;;;16.47;55.93
73415;BME280;61633;53.742;-2.990;2022-08-21T00:46:54;101305.99;;;15.54;56.81
73415;BME280;61633;53.742;-2.990;2022-08-21T00:49:19;101302.69;;;16.52;54.21
73415;BME280;61633;53.742;-2.990;2022-08-21T00:51:48;101309.17;;;15.73;54.96
73415;BME280;61633;53.742;-2.990;2022-08-21T00:54:11;101310.50;;;15.01;55.67
73415;BME280;61633;53.742;-2.990;2022-08-21T00:56:36;101306.99;;;15.99;53.34
73415;BME280;61633;53.742;-2.990;2022-08-21T00:59:01;101303.05;;;16.06;54.39
73415;BME280;61633;53.742;-2.990;2022-08-21T01:01:27;101301.84;;;16.06;53.59
73415;BME280;61633;53.742;-2.990;2022-08-21T01:03:53;101304.81;;;15.95;53.96
73415;BME280;61633;53.742;-2.990;2022-08-21T01:06:18;101307.97;;;16.51;53.34
73415;BME280;61633;53.742;-2.990;2022-08-21T01:08:44;101311.05;;;15.84;54.58
73415;BME280;61633;53.742;-2.990;2022-08-21T01:11:09;101314.79;;;15.49;54.53
73415;BME280;61633;53.742;-2.990;2022-08-21T01:13:36;101315.94;;;15.97;54.81
73415;BME280;61633;53.742;-2.990;2022-08-21T01:16:04;101315.18;;;15.42;55.20
73415;BME280;61633;53.742;-2.990;2022-08-21T01:18:26;101315.71;;;15.78;54.86
73415;BME280;61633;53.742;-2.990;2022-08-21T01:21:03;101324.92;;;15.56;54.80
73415;BME280;61633;53.742;-2.990;2022-08-21T01:23:17;101324.03;;;15.49;55.81
73415;BME280;61633;53.742;-2.990;2022-08-21T01:25:42;101326.61;;;15.48;55.72
73415;BME280;61633;53.742;-2.990;2022-08-21T01:28:13;101325.63;;;15.06;56.28
73415;BME280;61633;53.742;-2.990;2022-08-21T01:30:35;101326.28;;;15.68;55.41
73415;BME280;61633;53.742;-2.990;2022-08-21T01:32:59;101325.83;;;16.40;52.92
73415;BME280;61633;53.742;-2.990;2022-08-21T01:35:24;101323.09;;;15.93;52.57
73415;BME280;61633;53.742;-2.990;2022-08-21T01:37:50;101328.98;;;16.42;52.50
73415;BME280;61633;53.742;-2.990;2022-08-21T01:40:17;101331.00;;;15.44;54.98
73415;BME280;61633;53.742;-2.990;2022-08-21T01:42:41;101331.25;;;15.33;55.63
73415;BME280;61633;53.742;-2.990;2022-08-21T01:45:07;101338.09;;;15.03;56.87
73415;BME280;61633;53.742;-2.990;2022-08-21T01:47:32;101333.07;;;15.09;57.70
73415;BME280;61633;53.742;-2.990;2022-08-21T01:49:57;101328.20;;;14.61;57.40
73415;BME280;61633;53.742;-2.990;2022-08-21T01:52:23;101332.36;;;15.05;56.75
73415;BME280;61633;53.742;-2.990;2022-08-21T01:54:49;101345.54;;;15.41;56.44
73415;BME280;61633;53.742;-2.990;2022-08-21T01:57:15;101349.97;;;15.01;56.56
73415;BME280;61633;53.742;-2.990;2022-08-21T01:59:40;101351.31;;;14.91;56.17
73415;BME280;61633;53.742;-2.990;2022-08-21T02:02:06;101353.06;;;15.29;55.26
73415;BME280;61633;53.742;-2.990;2022-08-21T02:04:31;101346.93;;;16.11;54.27
73415;BME280;61633;53.742;-2.990;2022-08-21T02:07:02;101348.04;;;15.87;55.19
73415;BME280;61633;53.742;-2.990;2022-08-21T02:09:22;101350.66;;;15.21;56.22
73415;BME280;61633;53.742;-2.990;2022-08-21T02:11:48;101356.48;;;14.93;56.50
73415;BME280;61633;53.742;-2.990;2022-08-21T02:14:14;101354.73;;;15.40;53.21
73415;BME280;61633;53.742;-2.990;2022-08-21T02:16:38;101356.90;;;15.17;53.69
73415;BME280;61633;53.742;-2.990;2022-08-21T02:19:04;101352.78;;;15.51;53.81
73415;BME280;61633;53.742;-2.990;2022-08-21T02:21:29;101350.33;;;15.32;54.00
73415;BME280;61633;53.742;-2.990;2022-08-21T02:23:55;101345.25;;;14.71;56.26
73415;BME280;61633;53.742;-2.990;2022-08-21T02:26:20;101344.62;;;15.48;54.64
73415;BME280;61633;53.742;-2.990;2022-08-21T02:28:46;101332.50;;;14.90;55.18
73415;BME280;61633;53.742;-2.990;2022-08-21T02:31:12;101339.89;;;14.80;55.53
73415;BME280;61633;53.742;-2.990;2022-08-21T02:33:37;101337.59;;;14.83;54.49
73415;BME280;61633;53.742;-2.990;2022-08-21T02:36:03;101337.58;;;15.24;52.15
73415;BME280;61633;53.742;-2.990;2022-08-21T02:38:30;101329.60;;;14.70;52.58
73415;BME280;61633;53.742;-2.990;2022-08-21T02:40:54;101328.88;;;14.90;52.84
73415;BME280;61633;53.742;-2.990;2022-08-21T02:43:21;101337.61;;;14.49;53.27
73415;BME280;61633;53.742;-2.990;2022-08-21T02:45:46;101334.64;;;15.65;51.84
73415;BME280;61633;53.742;-2.990;2022-08-21T02:48:14;101335.72;;;15.24;53.18
73415;BME280;61633;53.742;-2.990;2022-08-21T02:50:38;101337.72;;;14.92;53.95
73415;BME280;61633;53.742;-2.990;2022-08-21T02:53:02;101336.48;;;15.33;52.50
73415;BME280;61633;53.742;-2.990;2022-08-21T02:55:29;101337.48;;;15.03;51.68
73415;BME280;61633;53.742;-2.990;2022-08-21T02:57:53;101340.64;;;15.90;49.09
73415;BME280;61633;53.742;-2.990;2022-08-21T03:00:19;101341.88;;;14.96;49.70
73415;BME280;61633;53.742;-2.990;2022-08-21T03:02:44;101339.04;;;14.59;49.76
73415;BME280;61633;53.742;-2.990;2022-08-21T03:05:10;101339.69;;;15.16;48.68
73415;BME280;61633;53.742;-2.990;2022-08-21T03:07:35;101338.87;;;14.30;49.32
73415;BME280;61633;53.742;-2.990;2022-08-21T03:10:00;101341.52;;;14.58;49.03
73415;BME280;61633;53.742;-2.990;2022-08-21T03:12:26;101342.35;;;13.98;49.11
73415;BME280;61633;53.742;-2.990;2022-08-21T03:14:52;101339.60;;;14.79;46.98
73415;BME280;61633;53.742;-2.990;2022-08-21T03:17:17;101341.56;;;15.00;47.34
73415;BME280;61633;53.742;-2.990;2022-08-21T03:19:42;101339.66;;;15.10;46.80
73415;BME280;61633;53.742;-2.990;2022-08-21T03:22:08;101342.73;;;15.93;46.04
73415;BME280;61633;53.742;-2.990;2022-08-21T03:24:33;101350.48;;;15.30;47.76
73415;BME280;61633;53.742;-2.990;2022-08-21T03:26:59;101350.09;;;15.43;48.17
73415;BME280;61633;53.742;-2.990;2022-08-21T03:29:25;101349.96;;;15.38;49.07
73415;BME280;61633;53.742;-2.990;2022-08-21T03:31:51;101348.83;;;14.92;48.91
73415;BME280;61633;53.742;-2.990;2022-08-21T03:34:16;101343.33;;;14.27;49.88
73415;BME280;61633;53.742;-2.990;2022-08-21T03:36:42;101340.93;;;14.22;49.63
73415;BME280;61633;53.742;-2.990;2022-08-21T03:39:07;101342.56;;;14.53;48.55
73415;BME280;61633;53.742;-2.990;2022-08-21T03:41:33;101343.68;;;14.36;48.57
73415;BME280;61633;53.742;-2.990;2022-08-21T03:43:58;101345.86;;;15.17;47.52
73415;BME280;61633;53.742;-2.990;2022-08-21T03:46:24;101348.82;;;15.12;47.96
73415;BME280;61633;53.742;-2.990;2022-08-21T03:48:49;101353.57;;;15.17;48.48
73415;BME280;61633;53.742;-2.990;2022-08-21T03:51:15;101353.19;;;15.56;47.32
73415;BME280;61633;53.742;-2.990;2022-08-21T03:53:40;101349.99;;;15.16;47.93
73415;BME280;61633;53.742;-2.990;2022-08-21T03:56:06;101349.20;;;15.83;45.08
73415;BME280;61633;53.742;-2.990;2022-08-21T03:58:31;101351.44;;;14.90;45.90
73415;BME280;61633;53.742;-2.990;2022-08-21T04:00:59;101352.58;;;15.42;46.00
73415;BME280;61633;53.742;-2.990;2022-08-21T04:03:23;101346.48;;;14.95;45.25
73415;BME280;61633;53.742;-2.990;2022-08-21T04:05:47;101348.36;;;14.53;44.87
73415;BME280;61633;53.742;-2.990;2022-08-21T04:08:14;101354.80;;;14.36;45.10
73415;BME280;61633;53.742;-2.990;2022-08-21T04:10:39;101360.08;;;14.78;43.30
73415;BME280;61633;53.742;-2.990;2022-08-21T04:13:06;101366.53;;;14.84;43.72
73415;BME280;61633;53.742;-2.990;2022-08-21T04:15:30;101368.35;;;14.27;44.95
73415;BME280;61633;53.742;-2.990;2022-08-21T04:17:55;101373.86;;;14.42;45.17
73415;BME280;61633;53.742;-2.990;2022-08-21T04:20:21;101377.04;;;13.56;47.25
73415;BME280;61633;53.742;-2.990;2022-08-21T04:22:46;101378.38;;;15.01;44.84
73415;BME280;61633;53.742;-2.990;2022-08-21T04:25:13;101379.97;;;15.42;43.75
73415;BME280;61633;53.742;-2.990;2022-08-21T04:27:37;101381.85;;;15.27;44.31
73415;BME280;61633;53.742;-2.990;2022-08-21T04:30:03;101374.26;;;14.51;45.62
73415;BME280;61633;53.742;-2.990;2022-08-21T04:32:29;101381.77;;;15.27;45.66
73415;BME280;61633;53.742;-2.990;2022-08-21T04:34:59;101381.78;;;14.67;47.25
73415;BME280;61633;53.742;-2.990;2022-08-21T04:37:19;101382.65;;;14.76;47.65
73415;BME280;61633;53.742;-2.990;2022-08-21T04:39:45;101382.67;;;14.74;47.02
73415;BME280;61633;53.742;-2.990;2022-08-21T04:42:10;101386.75;;;15.01;46.05
73415;BME280;61633;53.742;-2.990;2022-08-21T04:44:36;101384.61;;;15.15;46.31
73415;BME280;61633;53.742;-2.990;2022-08-21T04:47:01;101383.24;;;15.18;46.42
73415;BME280;61633;53.742;-2.990;2022-08-21T04:49:26;101383.05;;;14.92;46.70
73415;BME280;61633;53.742;-2.990;2022-08-21T04:51:52;101379.60;;;14.49;47.76
73415;BME280;61633;53.742;-2.990;2022-08-21T04:54:20;101384.17;;;14.00;49.01
73415;BME280;61633;53.742;-2.990;2022-08-21T04:56:47;101389.42;;;14.73;49.11
73415;BME280;61633;53.742;-2.990;2022-08-21T04:59:14;101393.66;;;14.56;49.30
73415;BME280;61633;53.742;-2.990;2022-08-21T05:01:36;101398.63;;;14.04;48.74
73415;BME280;61633;53.742;-2.990;2022-08-21T05:04:02;101406.91;;;14.35;48.51
73415;BME280;61633;53.742;-2.990;2022-08-21T05:06:28;101412.36;;;14.24;47.73
73415;BME280;61633;53.742;-2.990;2022-08-21T05:08:53;101420.25;;;14.16;48.15
73415;BME280;61633;53.742;-2.990;2022-08-21T05:11:18;101416.09;;;14.04;47.81
73415;BME280;61633;53.742;-2.990;2022-08-21T05:13:43;101417.85;;;13.98;47.75
73415;BME280;61633;53.742;-2.990;2022-08-21T05:16:09;101414.64;;;15.13;45.59
73415;BME280;61633;53.742;-2.990;2022-08-21T05:18:34;101415.00;;;15.00;45.32
73415;BME280;61633;53.742;-2.990;2022-08-21T05:21:00;101419.08;;;14.69;45.66
73415;BME280;61633;53.742;-2.990;2022-08-21T05:23:25;101422.57;;;14.98;44.72
73415;BME280;61633;53.742;-2.990;2022-08-21T05:25:52;101420.98;;;14.53;45.16
73415;BME280;61633;53.742;-2.990;2022-08-21T05:28:16;101423.75;;;14.80;45.54
73415;BME280;61633;53.742;-2.990;2022-08-21T05:30:41;101425.05;;;14.71;45.05
73415;BME280;61633;53.742;-2.990;2022-08-21T05:33:08;101429.32;;;15.25;44.59
73415;BME280;61633;53.742;-2.990;2022-08-21T05:35:33;101436.54;;;15.43;45.00
73415;BME280;61633;53.742;-2.990;2022-08-21T05:37:59;101434.34;;;15.17;44.75
73415;BME280;61633;53.742;-2.990;2022-08-21T05:40:24;101435.50;;;15.11;45.38
73415;BME280;61633;53.742;-2.990;2022-08-21T05:42:49;101431.75;;;15.04;45.71
73415;BME280;61633;53.742;-2.990;2022-08-21T05:45:14;101432.71;;;14.19;45.65
73415;BME280;61633;53.742;-2.990;2022-08-21T05:47:40;101431.51;;;14.56;45.59
73415;BME280;61633;53.742;-2.990;2022-08-21T05:50:06;101432.61;;;15.09;44.84
73415;BME280;61633;53.742;-2.990;2022-08-21T05:52:31;101432.31;;;15.37;44.35
73415;BME280;61633;53.742;-2.990;2022-08-21T05:54:56;101434.87;;;15.10;43.91
73415;BME280;61633;53.742;-2.990;2022-08-21T05:57:22;101438.23;;;15.05;44.10
73415;BME280;61633;53.742;-2.990;2022-08-21T05:59:47;101447.83;;;15.49;43.70
73415;BME280;61633;53.742;-2.990;2022-08-21T06:02:13;101450.51;;;14.73;44.42
73415;BME280;61633;53.742;-2.990;2022-08-21T06:04:39;101453.56;;;15.00;45.03
73415;BME280;61633;53.742;-2.990;2022-08-21T06:07:04;101454.09;;;14.13;46.03
73415;BME280;61633;53.742;-2.990;2022-08-21T06:09:29;101450.38;;;15.42;44.01
73415;BME280;61633;53.742;-2.990;2022-08-21T06:11:54;101454.74;;;15.30;43.96
73415;BME280;61633;53.742;-2.990;2022-08-21T06:14:19;101456.21;;;15.20;43.75
73415;BME280;61633;53.742;-2.990;2022-08-21T06:16:45;101456.69;;;15.33;43.56
73415;BME280;61633;53.742;-2.990;2022-08-21T06:19:11;101459.45;;;15.16;43.87
73415;BME280;61633;53.742;-2.990;2022-08-21T06:21:36;101460.64;;;15.34;43.33
73415;BME280;61633;53.742;-2.990;2022-08-21T06:24:02;101458.62;;;15.14;43.58
73415;BME280;61633;53.742;-2.990;2022-08-21T06:26:27;101460.61;;;15.51;43.64
73415;BME280;61633;53.742;-2.990;2022-08-21T06:28:53;101463.42;;;14.70;45.37
73415;BME280;61633;53.742;-2.990;2022-08-21T06:31:21;101461.86;;;15.05;44.91
73415;BME280;61633;53.742;-2.990;2022-08-21T06:33:44;101467.29;;;14.78;46.08
73415;BME280;61633;53.742;-2.990;2022-08-21T06:36:10;101470.35;;;15.34;44.00
73415;BME280;61633;53.742;-2.990;2022-08-21T06:38:35;101474.76;;;15.35;43.85
73415;BME280;61633;53.742;-2.990;2022-08-21T06:41:01;101476.03;;;15.53;44.61
73415;BME280;61633;53.742;-2.990;2022-08-21T06:43:26;101480.48;;;15.10;44.09
73415;BME280;61633;53.742;-2.990;2022-08-21T06:45:51;101480.80;;;15.70;43.67
73415;BME280;61633;53.742;-2.990;2022-08-21T06:48:17;101476.77;;;15.61;43.48
73415;BME280;61633;53.742;-2.990;2022-08-21T06:50:43;101477.13;;;16.08;42.91
73415;BME280;61633;53.742;-2.990;2022-08-21T06:53:12;101474.03;;;15.94;42.84
73415;BME280;61633;53.742;-2.990;2022-08-21T06:55:34;101480.17;;;15.94;42.08
73415;BME280;61633;53.742;-2.990;2022-08-21T06:57:59;101478.71;;;15.27;43.43
73415;BME280;61633;53.742;-2.990;2022-08-21T07:00:25;101483.00;;;14.40;43.71
73415;BME280;61633;53.742;-2.990;2022-08-21T07:02:50;101486.00;;;14.72;44.62
73415;BME280;61633;53.742;-2.990;2022-08-21T07:05:16;101487.19;;;14.94;44.05
73415;BME280;61633;53.742;-2.990;2022-08-21T07:07:42;101492.30;;;15.80;42.48
73415;BME280;61633;53.742;-2.990;2022-08-21T07:10:08;101497.81;;;15.30;43.58
73415;BME280;61633;53.742;-2.990;2022-08-21T07:12:33;101501.09;;;14.88;44.06
73415;BME280;61633;53.742;-2.990;2022-08-21T07:14:58;101494.76;;;15.53;43.40
73415;BME280;61633;53.742;-2.990;2022-08-21T07:17:24;101490.83;;;15.76;44.08
73415;BME280;61633;53.742;-2.990;2022-08-21T07:19:49;101493.90;;;16.18;41.60
73415;BME280;61633;53.742;-2.990;2022-08-21T07:22:16;101494.08;;;15.71;41.63
73415;BME280;61633;53.742;-2.990;2022-08-21T07:24:40;101498.52;;;15.53;42.58
73415;BME280;61633;53.742;-2.990;2022-08-21T07:27:06;101499.38;;;15.90;42.63
73415;BME280;61633;53.742;-2.990;2022-08-21T07:29:31;101505.82;;;15.94;42.76
73415;BME280;61633;53.742;-2.990;2022-08-21T07:31:57;101508.87;;;16.17;41.00
73415;BME280;61633;53.742;-2.990;2022-08-21T07:34:22;101510.71;;;15.80;41.10
73415;BME280;61633;53.742;-2.990;2022-08-21T07:36:48;101515.99;;;16.31;40.77
73415;BME280;61633;53.742;-2.990;2022-08-21T07:39:18;101510.89;;;15.17;41.43
73415;BME280;61633;53.742;-2.990;2022-08-21T07:41:39;101512.82;;;16.14;41.64
73415;BME280;61633;53.742;-2.990;2022-08-21T07:44:04;101511.54;;;16.12;41.53
73415;BME280;61633;53.742;-2.990;2022-08-21T07:46:30;101503.06;;;15.88;41.22
73415;BME280;61633;53.742;-2.990;2022-08-21T07:48:55;101503.25;;;15.67;42.44
73415;BME280;61633;53.742;-2.990;2022-08-21T07:51:23;101509.61;;;16.41;41.95
73415;BME280;61633;53.742;-2.990;2022-08-21T07:53:48;101513.69;;;16.91;40.73
73415;BME280;61633;53.742;-2.990;2022-08-21T07:56:12;101520.60;;;16.67;41.00
73415;BME280;61633;53.742;-2.990;2022-08-21T07:58:37;101514.62;;;17.27;38.29
73415;BME280;61633;53.742;-2.990;2022-08-21T08:01:02;101514.35;;;16.31;39.94
73415;BME280;61633;53.742;-2.990;2022-08-21T08:03:27;101517.90;;;16.66;40.15
73415;BME280;61633;53.742;-2.990;2022-08-21T08:05:53;101510.45;;;17.43;39.34
73415;BME280;61633;53.742;-2.990;2022-08-21T08:08:18;101514.37;;;16.65;40.03
73415;BME280;61633;53.742;-2.990;2022-08-21T08:10:44;101515.73;;;17.18;39.82
73415;BME280;61633;53.742;-2.990;2022-08-21T08:13:10;101516.14;;;15.70;41.76
73415;BME280;61633;53.742;-2.990;2022-08-21T08:15:36;101510.60;;;17.28;39.73
73415;BME280;61633;53.742;-2.990;2022-08-21T08:18:01;101514.58;;;16.77;38.58
73415;BME280;61633;53.742;-2.990;2022-08-21T08:20:26;101522.07;;;16.36;40.05
73415;BME280;61633;53.742;-2.990;2022-08-21T08:22:52;101522.35;;;16.62;39.86
73415;BME280;61633;53.742;-2.990;2022-08-21T08:25:18;101521.38;;;16.54;40.52
73415;BME280;61633;53.742;-2.990;2022-08-21T08:27:43;101524.06;;;16.39;38.32
73415;BME280;61633;53.742;-2.990;2022-08-21T08:30:12;101524.74;;;16.93;38.14
73415;BME280;61633;53.742;-2.990;2022-08-21T08:32:33;101520.92;;;16.58;36.83
73415;BME280;61633;53.742;-2.990;2022-08-21T08:34:59;101522.01;;;16.45;37.94
73415;BME280;61633;53.742;-2.990;2022-08-21T08:37:25;101519.00;;;17.22;38.31
73415;BME280;61633;53.742;-2.990;2022-08-21T08:39:50;101520.97;;;16.79;38.95
73415;BME280;61633;53.742;-2.990;2022-08-21T08:42:20;101530.05;;;16.26;39.31
73415;BME280;61633;53.742;-2.990;2022-08-21T08:44:42;101536.22;;;17.19;38.76
73415;BME280;61633;53.742;-2.990;2022-08-21T08:47:08;101546.50;;;17.06;38.29
73415;BME280;61633;53.742;-2.990;2022-08-21T08:49:37;101548.95;;;16.87;38.74
73415;BME280;61633;53.742;-2.990;2022-08-21T08:52:01;101551.49;;;17.25;38.46
73415;BME280;61633;53.742;-2.990;2022-08-21T08:54:27;101555.05;;;16.53;39.41
73415;BME280;61633;53.742;-2.990;2022-08-21T08:56:48;101551.98;;;16.92;37.93
73415;BME280;61633;53.742;-2.990;2022-08-21T08:59:17;101555.51;;;16.32;38.06
73415;BME280;61633;53.742;-2.990;2022-08-21T09:01:39;101551.11;;;17.06;38.42
73415;BME280;61633;53.742;-2.990;2022-08-21T09:04:05;101554.30;;;16.79;39.05
73415;BME280;61633;53.742;-2.990;2022-08-21T09:06:40;101558.19;;;16.37;38.44
73415;BME280;61633;53.742;-2.990;2022-08-21T09:09:05;101557.67;;;17.43;35.94
73415;BME280;61633;53.742;-2.990;2022-08-21T09:11:26;101560.85;;;16.95;35.90
73415;BME280;61633;53.742;-2.990;2022-08-21T09:13:52;101559.08;;;17.14;37.92
73415;BME280;61633;53.742;-2.990;2022-08-21T09:16:23;101556.08;;;17.29;37.94
73415;BME280;61633;53.742;-2.990;2022-08-21T09:18:45;101560.79;;;17.07;37.60
73415;BME280;61633;53.742;-2.990;2022-08-21T09:21:12;101561.54;;;16.59;40.10
73415;BME280;61633;53.742;-2.990;2022-08-21T09:23:36;101559.73;;;17.53;38.46
73415;BME280;61633;53.742;-2.990;2022-08-21T09:26:01;101561.59;;;17.40;36.72
73415;BME280;61633;53.742;-2.990;2022-08-21T09:28:20;101568.07;;;16.68;36.95
73415;BME280;61633;53.742;-2.990;2022-08-21T09:30:45;101565.02;;;17.14;36.47
73415;BME280;61633;53.742;-2.990;2022-08-21T09:33:13;101562.84;;;16.99;36.30
73415;BME280;61633;53.742;-2.990;2022-08-21T09:35:47;101560.45;;;16.95;36.20
73415;BME280;61633;53.742;-2.990;2022-08-21T09:38:04;101551.48;;;18.65;35.39
73415;BME280;61633;53.742;-2.990;2022-08-21T09:40:35;101552.13;;;18.30;35.41
73415;BME280;61633;53.742;-2.990;2022-08-21T09:42:56;101555.68;;;18.07;34.57
73415;BME280;61633;53.742;-2.990;2022-08-21T09:45:19;101550.14;;;18.39;34.27
73415;BME280;61633;53.742;-2.990;2022-08-21T09:47:44;101553.31;;;18.23;34.74
73415;BME280;61633;53.742;-2.990;2022-08-21T09:50:12;101561.23;;;17.30;38.21
73415;BME280;61633;53.742;-2.990;2022-08-21T09:52:35;101555.65;;;17.43;35.98
73415;BME280;61633;53.742;-2.990;2022-08-21T09:55:01;101550.58;;;17.91;36.56
73415;BME280;61633;53.742;-2.990;2022-08-21T09:57:28;101551.87;;;18.45;35.53
73415;BME280;61633;53.742;-2.990;2022-08-21T09:59:51;101549.55;;;18.77;34.93
73415;BME280;61633;53.742;-2.990;2022-08-21T10:02:24;101548.11;;;18.46;35.78
73415;BME280;61633;53.742;-2.990;2022-08-21T10:04:49;101547.71;;;18.54;36.12
73415;BME280;61633;53.742;-2.990;2022-08-21T10:07:08;101558.79;;;17.44;36.01
73415;BME280;61633;53.742;-2.990;2022-08-21T10:09:33;101553.80;;;18.50;36.08
73415;BME280;61633;53.742;-2.990;2022-08-21T10:12:08;101557.32;;;17.78;35.98
73415;BME280;61633;53.742;-2.990;2022-08-21T10:14:38;101557.54;;;18.33;35.50
73415;BME280;61633;53.742;-2.990;2022-08-21T10:16:57;101554.96;;;18.85;36.43
73415;BME280;61633;53.742;-2.990;2022-08-21T10:19:22;101553.81;;;18.57;36.59
73415;BME280;61633;53.742;-2.990;2022-08-21T10:21:46;101563.01;;;17.29;36.76
73415;BME280;61633;53.742;-2.990;2022-08-21T10:24:13;101563.59;;;18.36;34.98
73415;BME280;61633;53.742;-2.990;2022-08-21T10:26:41;101567.08;;;18.67;35.72
73415;BME280;61633;53.742;-2.990;2022-08-21T10:29:05;101571.31;;;18.16;37.27
73415;BME280;61633;53.742;-2.990;2022-08-21T10:31:29;101570.30;;;17.91;38.40
73415;BME280;61633;53.742;-2.990;2022-08-21T10:33:55;101580.84;;;17.43;38.87
73415;BME280;61633;53.742;-2.990;2022-08-21T10:36:18;101572.51;;;18.09;37.76
73415;BME280;61633;53.742;-2.990;2022-08-21T10:38:54;101570.83;;;18.95;38.73
73415;BME280;61633;53.742;-2.990;2022-08-21T10:41:12;101569.65;;;18.93;35.80
73415;BME280;61633;53.742;-2.990;2022-08-21T10:43:38;101573.75;;;19.46;36.40
73415;BME280;61633;53.742;-2.990;2022-08-21T10:46:02;101570.08;;;18.02;38.89
73415;BME280;61633;53.742;-2.990;2022-08-21T10:48:29;101569.77;;;19.15;36.96
73415;BME280;61633;53.742;-2.990;2022-08-21T10:50:50;101563.48;;;19.51;35.86
73415;BME280;61633;53.742;-2.990;2022-08-21T10:53:29;101565.93;;;19.62;34.51
73415;BME280;61633;53.742;-2.990;2022-08-21T10:55:42;101580.63;;;20.20;32.90
73415;BME280;61633;53.742;-2.990;2022-08-21T10:58:09;101576.12;;;19.50;33.91
73415;BME280;61633;53.742;-2.990;2022-08-21T11:00:33;101568.18;;;20.19;34.27
73415;BME280;61633;53.742;-2.990;2022-08-21T11:02:58;101567.44;;;20.39;33.73
73415;BME280;61633;53.742;-2.990;2022-08-21T11:05:25;101570.49;;;19.52;34.17
73415;BME280;61633;53.742;-2.990;2022-08-21T11:07:48;101574.27;;;18.42;34.86
73415;BME280;61633;53.742;-2.990;2022-08-21T11:10:16;101571.62;;;19.37;34.50
73415;BME280;61633;53.742;-2.990;2022-08-21T11:12:40;101571.52;;;19.00;35.20
73415;BME280;61633;53.742;-2.990;2022-08-21T11:15:05;101579.06;;;18.92;34.27
73415;BME280;61633;53.742;-2.990;2022-08-21T11:17:32;101578.03;;;18.83;34.46
73415;BME280;61633;53.742;-2.990;2022-08-21T11:19:59;101583.07;;;17.97;37.21
73415;BME280;61633;53.742;-2.990;2022-08-21T11:22:23;101584.09;;;18.50;35.80
73415;BME280;61633;53.742;-2.990;2022-08-21T11:24:47;101587.46;;;19.26;33.73
73415;BME280;61633;53.742;-2.990;2022-08-21T11:27:17;101588.11;;;18.78;34.10
73415;BME280;61633;53.742;-2.990;2022-08-21T11:29:38;101581.42;;;18.65;33.49
73415;BME280;61633;53.742;-2.990;2022-08-21T11:32:12;101578.89;;;19.17;34.94
73415;BME280;61633;53.742;-2.990;2022-08-21T11:34:38;101581.44;;;18.36;34.60
73415;BME280;61633;53.742;-2.990;2022-08-21T11:36:55;101580.64;;;19.64;33.80
73415;BME280;61633;53.742;-2.990;2022-08-21T11:39:23;101583.65;;;19.79;33.76
73415;BME280;61633;53.742;-2.990;2022-08-21T11:41:46;101581.55;;;19.55;34.09
73415;BME280;61633;53.742;-2.990;2022-08-21T11:44:17;101577.41;;;20.12;33.95
73415;BME280;61633;53.742;-2.990;2022-08-21T11:46:38;101571.76;;;20.17;32.96
73415;BME280;61633;53.742;-2.990;2022-08-21T11:49:06;101569.41;;;20.70;32.63
73415;BME280;61633;53.742;-2.990;2022-08-21T11:51:27;101568.46;;;20.61;32.32
73415;BME280;61633;53.742;-2.990;2022-08-21T11:53:51;101571.43;;;20.90;33.28
73415;BME280;61633;53.742;-2.990;2022-08-21T11:56:18;101576.19;;;20.30;32.22
73415;BME280;61633;53.742;-2.990;2022-08-21T11:58:42;101573.81;;;19.82;34.53
73415;BME280;61633;53.742;-2.990;2022-08-21T12:01:08;101572.36;;;20.66;33.58
73415;BME280;61633;53.742;-2.990;2022-08-21T12:03:33;101575.01;;;19.84;33.35
73415;BME280;61633;53.742;-2.990;2022-08-21T12:05:58;101579.87;;;20.37;34.06
73415;BME280;61633;53.742;-2.990;2022-08-21T12:08:28;101582.32;;;19.48;35.55
73415;BME280;61633;53.742;-2.990;2022-08-21T12:10:59;101581.29;;;19.81;34.35
73415;BME280;61633;53.742;-2.990;2022-08-21T12:13:22;101582.60;;;19.98;35.00
73415;BME280;61633;53.742;-2.990;2022-08-21T12:15:38;101582.07;;;20.37;34.32
73415;BME280;61633;53.742;-2.990;2022-08-21T12:18:05;101589.84;;;20.12;33.47
73415;BME280;61633;53.742;-2.990;2022-08-21T12:20:38;101584.75;;;20.70;34.43
73415;BME280;61633;53.742;-2.990;2022-08-21T12:23:02;101588.01;;;19.65;34.77
73415;BME280;61633;53.742;-2.990;2022-08-21T12:25:20;101590.41;;;19.43;35.45
73415;BME280;61633;53.742;-2.990;2022-08-21T12:27:47;101589.20;;;20.46;34.77
73415;BME280;61633;53.742;-2.990;2022-08-21T12:30:20;101592.78;;;20.13;35.03